Jackson Hole, Wyoming
Current Conditions -  °F | °C
As of 11:51 AM on Friday 24 Oct 2014 (Local Time) from KJAC Reporting Station
Broken Clouds Broken Clouds  
Wind Chill: 57°   Ceiling: 8000
Heat Index: 57°   Visibility: 10mi
Dew Point: 30°   Wind: 10mph
Humidity: 36%   Direction: 180°S
Pressure: 30.21"   Gusts: NA
Location:  43.48°N, 110.761°W
Report Text: KJAC 241751Z 18009KT 10SM BKN080 14/M01 A3021
Loading
Personal Weather Stations






























Interactive Weather Map
Tropical Storm Tracking
New forecast layout! Learn more

10-Day Weather Forecast

Advertisements
Track Severe Weather on mobile